Time;durP1;ratioP1;P1;durP2;ratioP2;P2;SDS_P1;SDS_P2;PMS_P1;PMS_P2;Temp;Humidity;BMP_temperature;BMP_pressure;BME280_temperature;BME280_humidity;BME280_pressure;Samples;Min_cycle;Max_cycle;Signal;HPM_P1;HPM_P2
2023/06/23 00:00:55;;;;;;;;;;;;;;;27.34;39.96;101432.66;5084878;28;20544;-80
2023/06/23 00:03:20;;;;;;;;;;;;;;;27.29;40.27;101435.66;5085970;28;19922;-81
2023/06/23 00:05:45;;;;;;;;;;;;;;;27.28;40.18;101455.22;5081861;28;19921;-81
2023/06/23 00:08:11;;;;;;;;;;;;;;;27.28;40.04;101468.97;5082598;28;19916;-81
2023/06/23 00:10:36;;;;;;;;;;;;;;;27.26;40.00;101479.53;5068098;28;19958;-80
2023/06/23 00:13:02;;;;;;;;;;;;;;;27.22;40.43;101475.88;5086158;28;20384;-81
2023/06/23 00:15:28;;;;;;;;;;;;;;;27.17;40.88;101465.91;5084685;28;19950;-81
2023/06/23 00:17:53;;;;;;;;;;;;;;;27.15;41.24;101464.63;5081575;28;19917;-81
2023/06/23 00:20:19;;;;;;;;;;;;;;;27.15;40.58;101459.94;5082456;28;19923;-81
2023/06/23 00:22:44;;;;;;;;;;;;;;;27.14;41.21;101452.84;5084132;28;19920;-80
2023/06/23 00:25:11;;;;;;;;;;;;;;;27.11;41.28;101448.03;5087080;28;20008;-81
2023/06/23 00:27:39;;;;;;;;;;;;;;;27.06;41.32;101439.97;5085576;28;20322;-80
2023/06/23 00:30:05;;;;;;;;;;;;;;;27.03;41.72;101440.66;5085512;28;19921;-80
2023/06/23 00:32:30;;;;;;;;;;;;;;;27.01;41.61;101426.47;5087205;28;19926;-81
2023/06/23 00:34:56;;;;;;;;;;;;;;;27.01;40.67;101429.22;5068073;28;19946;-81
2023/06/23 00:37:21;;;;;;;;;;;;;;;26.99;41.41;101428.72;5086183;28;19965;-81
2023/06/23 00:39:46;;;;;;;;;;;;;;;26.94;41.52;101417.97;5085389;28;19927;-81
2023/06/23 00:42:11;;;;;;;;;;;;;;;26.90;41.77;101414.25;5089334;28;19951;-81
2023/06/23 00:44:37;;;;;;;;;;;;;;;26.86;41.70;101405.91;5087432;28;20007;-82
2023/06/23 00:47:03;;;;;;;;;;;;;;;26.86;41.70;101396.84;5088135;28;19924;-81
2023/06/23 00:49:29;;;;;;;;;;;;;;;26.86;41.68;101372.91;5087507;28;19927;-81
2023/06/23 00:51:55;;;;;;;;;;;;;;;26.86;41.74;101359.16;5084098;28;20352;-82
2023/06/23 00:54:23;;;;;;;;;;;;;;;26.86;41.26;101344.63;5086429;28;19916;-85
2023/06/23 00:56:49;;;;;;;;;;;;;;;26.85;41.07;101337.50;5087630;28;19916;-82
2023/06/23 00:59:15;;;;;;;;;;;;;;;26.86;41.12;101358.38;5087608;28;19927;-81
2023/06/23 01:01:40;;;;;;;;;;;;;;;26.80;41.33;101382.53;5067342;28;19927;-81
2023/06/23 01:04:08;;;;;;;;;;;;;;;26.77;41.22;101411.53;5083828;28;20011;-81
2023/06/23 01:06:46;;;;;;;;;;;;;;;26.76;41.54;101415.41;5079554;28;19923;-80
2023/06/23 01:09:30;;;;;;;;;;;;;;;26.76;41.65;101414.63;5082836;28;19989;-81
2023/06/23 01:12:01;;;;;;;;;;;;;;;26.73;41.57;101407.03;5082754;28;19917;-81
2023/06/23 01:14:49;;;;;;;;;;;;;;;26.73;42.04;101409.78;5082082;28;19916;-81
2023/06/23 01:17:24;;;;;;;;;;;;;;;26.68;41.68;101402.56;5075879;28;19928;-81
2023/06/23 01:19:53;;;;;;;;;;;;;;;26.63;42.20;101400.03;5080406;28;19917;-80
2023/06/23 01:22:26;;;;;;;;;;;;;;;26.60;42.46;101394.44;5081017;28;20010;-81
2023/06/23 01:25:11;;;;;;;;;;;;;;;26.56;42.70;101397.03;5088336;28;20166;-81
2023/06/23 01:27:36;;;;;;;;;;;;;;;26.53;42.73;101389.47;5083310;28;19961;-81
2023/06/23 01:30:02;;;;;;;;;;;;;;;26.53;42.81;101383.97;5081111;28;19923;-81
2023/06/23 01:32:31;;;;;;;;;;;;;;;26.50;42.85;101376.41;5083743;28;19927;-80
2023/06/23 01:34:58;;;;;;;;;;;;;;;26.49;42.35;101363.81;5080722;28;19943;-82
2023/06/23 01:37:26;;;;;;;;;;;;;;;26.51;42.61;101364.28;5079665;28;19916;-80
2023/06/23 01:39:53;;;;;;;;;;;;;;;26.50;42.34;101354.44;5067678;28;19916;-81
2023/06/23 01:42:19;;;;;;;;;;;;;;;26.48;42.46;101343.00;5081310;28;19959;-81
2023/06/23 01:44:49;;;;;;;;;;;;;;;26.45;42.44;101328.00;5068834;28;20011;-81
2023/06/23 01:47:17;;;;;;;;;;;;;;;26.44;42.20;101322.84;5088105;28;19924;-81
2023/06/23 01:49:43;;;;;;;;;;;;;;;26.41;42.34;101318.03;5085551;28;19935;-80
2023/06/23 01:52:10;;;;;;;;;;;;;;;26.40;42.35;101316.44;5081591;28;19999;-83
2023/06/23 01:54:38;;;;;;;;;;;;;;;26.38;42.25;101316.75;5079853;28;19946;-81
2023/06/23 01:57:05;;;;;;;;;;;;;;;26.39;42.28;101323.03;5088560;28;20306;-81
2023/06/23 01:59:31;;;;;;;;;;;;;;;26.40;41.96;101317.22;5085074;28;20010;-82
2023/06/23 02:01:58;;;;;;;;;;;;;;;26.39;41.95;101310.13;5080800;28;20286;-82
2023/06/23 02:04:24;;;;;;;;;;;;;;;26.38;42.35;101314.00;5059485;28;20018;-81
2023/06/23 02:06:50;;;;;;;;;;;;;;;26.34;41.97;101312.25;5087890;28;19920;-81
2023/06/23 02:09:20;;;;;;;;;;;;;;;26.33;42.19;101311.44;5086759;28;20965;-80
2023/06/23 02:11:46;;;;;;;;;;;;;;;26.32;43.14;101320.03;5083763;28;19920;-81
2023/06/23 02:14:13;;;;;;;;;;;;;;;26.33;42.36;101325.19;5080031;28;19916;-81
2023/06/23 02:16:40;;;;;;;;;;;;;;;26.30;42.68;101328.63;5071552;28;19920;-82
2023/06/23 02:19:06;;;;;;;;;;;;;;;26.27;42.84;101334.00;5083151;28;19916;-81
2023/06/23 02:21:32;;;;;;;;;;;;;;;26.20;42.78;101329.84;5086863;28;19935;-81
2023/06/23 02:24:00;;;;;;;;;;;;;;;26.16;42.52;101328.91;5077810;28;19920;-81
2023/06/23 02:26:25;;;;;;;;;;;;;;;26.08;42.65;101327.06;5082220;28;19924;-82
2023/06/23 02:28:51;;;;;;;;;;;;;;;26.06;42.84;101321.13;5082269;28;19962;-81
2023/06/23 02:31:18;;;;;;;;;;;;;;;26.06;43.08;101310.16;5083021;28;19924;-81
2023/06/23 02:33:43;;;;;;;;;;;;;;;26.06;42.93;101315.63;5082123;28;20549;-81
2023/06/23 02:36:10;;;;;;;;;;;;;;;26.06;42.71;101310.16;5080452;28;20011;-81
2023/06/23 02:38:36;;;;;;;;;;;;;;;26.05;42.78;101308.53;5076253;28;20003;-81
2023/06/23 02:41:03;;;;;;;;;;;;;;;26.05;42.88;101300.31;5068495;28;20007;-81
2023/06/23 02:43:34;;;;;;;;;;;;;;;26.05;42.94;101305.78;5054987;28;19970;-80
2023/06/23 02:46:01;;;;;;;;;;;;;;;26.04;42.83;101303.38;5083770;28;20380;-82
2023/06/23 02:48:30;;;;;;;;;;;;;;;26.04;42.80;101309.69;5079058;28;20403;-81
2023/06/23 02:50:57;;;;;;;;;;;;;;;26.05;42.59;101308.53;5077501;28;19920;-81
2023/06/23 02:53:25;;;;;;;;;;;;;;;26.03;43.10;101305.34;5080688;28;20371;-82
2023/06/23 02:55:55;;;;;;;;;;;;;;;26.00;43.14;101305.97;5079669;28;19917;-82
2023/06/23 02:58:21;;;;;;;;;;;;;;;25.96;43.12;101331.72;5076507;28;19916;-81
2023/06/23 03:00:49;;;;;;;;;;;;;;;25.94;43.32;101340.28;5079999;28;20438;-82
2023/06/23 03:03:15;;;;;;;;;;;;;;;25.95;42.33;101333.66;5080082;28;19958;-81
2023/06/23 03:05:40;;;;;;;;;;;;;;;25.99;42.76;101320.84;5081289;28;19940;-85
2023/06/23 03:08:06;;;;;;;;;;;;;;;25.99;42.56;101309.88;5080840;28;20770;-82
2023/06/23 03:10:32;;;;;;;;;;;;;;;25.99;42.57;101304.38;5082069;28;20020;-82
2023/06/23 03:12:59;;;;;;;;;;;;;;;25.99;42.64;101309.06;5080283;28;20388;-81
2023/06/23 03:15:25;;;;;;;;;;;;;;;26.02;42.33;101322.13;5083935;28;19916;-83
2023/06/23 03:17:52;;;;;;;;;;;;;;;26.01;42.62;101323.25;5079925;28;19924;-83
2023/06/23 03:20:37;;;;;;;;;;;;;;;25.98;42.70;101311.00;5081505;28;19919;-80
2023/06/23 03:23:08;;;;;;;;;;;;;;;25.98;42.80;101312.97;5082965;28;19924;-81
2023/06/23 03:25:37;;;;;;;;;;;;;;;25.99;42.45;101311.81;5080361;28;19963;-81
2023/06/23 03:28:02;;;;;;;;;;;;;;;26.01;42.55;101313.09;5080916;28;19916;-82
2023/06/23 03:30:40;;;;;;;;;;;;;;;26.00;42.55;101313.44;5081518;28;20342;-81
2023/06/23 03:33:13;;;;;;;;;;;;;;;25.97;42.43;101306.66;5080342;28;19920;-81
2023/06/23 03:35:41;;;;;;;;;;;;;;;25.99;42.25;101304.38;5081134;28;19920;-80
2023/06/23 03:38:08;;;;;;;;;;;;;;;26.00;42.28;101297.75;5078588;28;19939;-81
2023/06/23 03:40:43;;;;;;;;;;;;;;;26.01;42.33;101304.84;5086608;28;19920;-81
2023/06/23 03:43:13;;;;;;;;;;;;;;;26.00;42.23;101300.50;5084071;28;19923;-81
2023/06/23 03:45:39;;;;;;;;;;;;;;;26.00;42.34;101300.50;5081622;28;19973;-81
2023/06/23 03:48:08;;;;;;;;;;;;;;;26.02;42.57;101308.41;5083243;28;19942;-81
2023/06/23 03:50:35;;;;;;;;;;;;;;;26.00;42.85;101322.47;5078761;28;19955;-81
2023/06/23 03:53:04;;;;;;;;;;;;;;;25.97;42.60;101327.84;5080744;28;19924;-81
2023/06/23 03:55:31;;;;;;;;;;;;;;;25.96;42.78;101343.50;5078810;28;19923;-82
2023/06/23 03:57:57;;;;;;;;;;;;;;;25.93;42.93;101332.41;5085235;28;20038;-81
2023/06/23 04:00:23;;;;;;;;;;;;;;;25.92;43.27;101348.06;5084076;28;20300;-82
2023/06/23 04:02:50;;;;;;;;;;;;;;;25.96;42.80;101343.50;5086187;28;19916;-81
2023/06/23 04:05:16;;;;;;;;;;;;;;;25.98;42.71;101349.47;5088196;28;19923;-80
2023/06/23 04:07:42;;;;;;;;;;;;;;;26.01;42.96;101353.47;5085080;28;19923;-82
2023/06/23 04:10:08;;;;;;;;;;;;;;;26.02;43.30;101349.56;5085654;28;19924;-82
2023/06/23 04:12:34;;;;;;;;;;;;;;;26.00;43.12;101355.41;5088814;28;19966;-81
2023/06/23 04:15:00;;;;;;;;;;;;;;;25.98;42.99;101352.19;5087551;28;20336;-81
2023/06/23 04:17:27;;;;;;;;;;;;;;;25.98;43.31;101354.94;5085053;28;19927;-80
2023/06/23 04:19:57;;;;;;;;;;;;;;;25.97;43.29;101353.34;5084723;28;19974;-82
2023/06/23 04:22:23;;;;;;;;;;;;;;;25.96;43.57;101349.00;5085169;28;19919;-81
2023/06/23 04:24:49;;;;;;;;;;;;;;;25.95;43.52;101352.09;5086317;28;19923;-81
2023/06/23 04:27:17;;;;;;;;;;;;;;;25.97;43.64;101358.03;5083531;28;20055;-81
2023/06/23 04:29:44;;;;;;;;;;;;;;;25.96;43.68;101357.22;5064898;28;19930;-81
2023/06/23 04:32:10;;;;;;;;;;;;;;;25.97;43.44;101358.03;5086228;28;19939;-81
2023/06/23 04:34:35;;;;;;;;;;;;;;;26.00;43.72;101360.91;5083849;28;19963;-81
2023/06/23 04:37:21;;;;;;;;;;;;;;;26.02;43.61;101372.34;5086562;28;19931;-81
2023/06/23 04:40:08;;;;;;;;;;;;;;;26.01;43.66;101370.75;5082015;28;19920;-82
2023/06/23 04:42:36;;;;;;;;;;;;;;;26.01;43.70;101384.47;5086337;28;19932;-82
2023/06/23 04:45:04;;;;;;;;;;;;;;;26.01;43.93;101381.72;5087387;28;19919;-82
2023/06/23 04:47:32;;;;;;;;;;;;;;;26.02;43.78;101394.31;5086724;28;19924;-82
2023/06/23 04:49:59;;;;;;;;;;;;;;;26.05;43.86;101395.59;5086446;28;19925;-82
2023/06/23 04:52:26;;;;;;;;;;;;;;;26.04;43.74;101400.31;5083525;28;19916;-82
2023/06/23 04:54:53;;;;;;;;;;;;;;;26.04;44.20;101405.00;5082320;28;19947;-82
2023/06/23 04:57:21;;;;;;;;;;;;;;;26.03;44.00;101411.59;5085852;28;19943;-82
2023/06/23 04:59:49;;;;;;;;;;;;;;;26.02;44.18;101419.03;5082118;28;19958;-82
2023/06/23 05:02:15;;;;;;;;;;;;;;;25.99;44.39;101411.47;5082865;28;19920;-81
2023/06/23 05:04:41;;;;;;;;;;;;;;;25.97;44.26;101408.25;5084993;28;19916;-82
2023/06/23 05:07:08;;;;;;;;;;;;;;;25.92;44.44;101405.72;5084954;28;20011;-82
2023/06/23 05:09:34;;;;;;;;;;;;;;;25.93;44.59;101410.06;5083635;28;19929;-82
2023/06/23 05:12:00;;;;;;;;;;;;;;;25.93;44.58;101412.81;5083007;28;19977;-81
2023/06/23 05:14:27;;;;;;;;;;;;;;;25.90;45.14;101429.97;5084736;28;19939;-82
2023/06/23 05:16:56;;;;;;;;;;;;;;;25.88;44.60;101424.81;5081975;28;19920;-81
2023/06/23 05:19:22;;;;;;;;;;;;;;;25.91;44.92;101428.81;5085664;28;19924;-81
2023/06/23 05:21:50;;;;;;;;;;;;;;;25.88;44.72;101429.50;5080992;28;19920;-82
2023/06/23 05:24:18;;;;;;;;;;;;;;;25.87;44.99;101427.91;5080182;28;20058;-82
2023/06/23 05:26:44;;;;;;;;;;;;;;;25.86;45.00;101426.28;5086478;28;19916;-82
2023/06/23 05:29:11;;;;;;;;;;;;;;;25.90;44.78;101421.72;5082609;28;19916;-81
2023/06/23 05:31:39;;;;;;;;;;;;;;;25.95;44.89;101423.47;5082233;28;19920;-81
2023/06/23 05:34:07;;;;;;;;;;;;;;;25.96;44.86;101423.13;5079882;28;19923;-81
2023/06/23 05:36:32;;;;;;;;;;;;;;;25.99;45.13;101429.88;5079559;28;20298;-82
2023/06/23 05:38:59;;;;;;;;;;;;;;;26.00;44.91;101431.50;5078945;28;19916;-82
2023/06/23 05:41:24;;;;;;;;;;;;;;;26.00;44.83;101443.28;5082765;28;19992;-82
2023/06/23 05:43:49;;;;;;;;;;;;;;;26.01;44.92;101444.06;5076801;28;20007;-83
2023/06/23 05:46:16;;;;;;;;;;;;;;;26.00;44.65;101446.00;5079554;28;19962;-83
2023/06/23 05:48:48;;;;;;;;;;;;;;;26.00;44.91;101443.28;5085063;28;19930;-82
2023/06/23 05:51:16;;;;;;;;;;;;;;;26.01;44.83;101450.38;5085603;28;19963;-83
2023/06/23 05:53:43;;;;;;;;;;;;;;;26.00;44.84;101450.72;5085772;28;19952;-82
2023/06/23 05:56:11;;;;;;;;;;;;;;;26.00;44.80;101454.25;5081668;28;20380;-83
2023/06/23 05:58:40;;;;;;;;;;;;;;;26.01;44.59;101464.09;5078807;28;20383;-83
2023/06/23 06:01:09;;;;;;;;;;;;;;;26.02;44.75;101464.91;5084216;28;19955;-84
2023/06/23 06:03:39;;;;;;;;;;;;;;;26.04;44.43;101465.41;5085315;28;19916;-82
2023/06/23 06:06:06;;;;;;;;;;;;;;;26.06;44.29;101466.66;5083652;28;19974;-82
2023/06/23 06:08:33;;;;;;;;;;;;;;;26.07;44.38;101471.00;5079867;28;19923;-81
2023/06/23 06:11:00;;;;;;;;;;;;;;;26.07;44.55;101470.22;5074358;28;19964;-80
2023/06/23 06:13:26;;;;;;;;;;;;;;;26.05;44.26;101467.81;5077798;28;19987;-80
2023/06/23 06:15:52;;;;;;;;;;;;;;;26.04;44.72;101468.13;5081537;28;20003;-80
2023/06/23 06:18:19;;;;;;;;;;;;;;;26.03;44.48;101474.75;5084441;28;20446;-80
2023/06/23 06:20:45;;;;;;;;;;;;;;;26.04;44.51;101479.13;5083092;28;19923;-80
2023/06/23 06:23:11;;;;;;;;;;;;;;;26.00;44.72;101492.69;5084684;28;19920;-80
2023/06/23 06:25:38;;;;;;;;;;;;;;;25.99;44.66;101491.09;5080243;28;19920;-80
2023/06/23 06:28:07;;;;;;;;;;;;;;;25.98;44.59;101478.50;5080848;28;19920;-81
2023/06/23 06:30:34;;;;;;;;;;;;;;;25.98;44.44;101472.22;5064908;28;19969;-80
2023/06/23 06:33:01;;;;;;;;;;;;;;;25.99;44.25;101469.13;5079838;28;20092;-80
2023/06/23 06:35:27;;;;;;;;;;;;;;;26.00;44.26;101472.66;5078689;28;19955;-80
2023/06/23 06:37:54;;;;;;;;;;;;;;;25.99;44.31;101469.13;5078414;28;20015;-79
2023/06/23 06:40:22;;;;;;;;;;;;;;;25.99;44.42;101476.56;5080893;28;19924;-80
2023/06/23 06:42:47;;;;;;;;;;;;;;;25.96;44.49;101467.06;5076563;28;19956;-80
2023/06/23 06:45:13;;;;;;;;;;;;;;;25.98;44.37;101466.72;5082957;28;19955;-80
2023/06/23 06:47:42;;;;;;;;;;;;;;;26.00;44.39;101459.75;5079606;28;19916;-80
2023/06/23 06:50:09;;;;;;;;;;;;;;;26.01;44.38;101461.34;5076205;28;19920;-80
2023/06/23 06:52:36;;;;;;;;;;;;;;;26.04;44.00;101466.19;5077326;28;19978;-80
2023/06/23 06:55:03;;;;;;;;;;;;;;;26.09;44.24;101474.22;5077039;28;20455;-80
2023/06/23 06:57:28;;;;;;;;;;;;;;;26.11;44.34;101482.13;5076623;28;19927;-80
2023/06/23 06:59:53;;;;;;;;;;;;;;;26.13;44.04;101479.84;5079168;28;19920;-80
2023/06/23 07:02:19;;;;;;;;;;;;;;;26.13;44.16;101480.66;5077845;28;19920;-80
2023/06/23 07:04:44;;;;;;;;;;;;;;;26.15;44.44;101477.56;5074472;28;19923;-80
2023/06/23 07:07:12;;;;;;;;;;;;;;;26.17;44.24;101458.81;5082099;28;19945;-81
2023/06/23 07:09:39;;;;;;;;;;;;;;;26.20;43.96;101458.94;5078017;28;20006;-80
2023/06/23 07:12:06;;;;;;;;;;;;;;;26.25;43.96;101454.38;5072270;28;19920;-80
2023/06/23 07:14:31;;;;;;;;;;;;;;;26.29;44.17;101460.81;5083389;28;20007;-80
2023/06/23 07:16:56;;;;;;;;;;;;;;;26.34;44.20;101468.84;5078482;28;19920;-81
2023/06/23 07:19:21;;;;;;;;;;;;;;;26.37;44.06;101468.19;5079974;28;20514;-80
2023/06/23 07:21:47;;;;;;;;;;;;;;;26.40;44.11;101467.53;5082371;28;19927;-81
2023/06/23 07:24:12;;;;;;;;;;;;;;;26.42;43.95;101473.50;5074589;28;19952;-81
2023/06/23 07:26:37;;;;;;;;;;;;;;;26.45;44.18;101470.06;5083803;28;19949;-80
2023/06/23 07:29:03;;;;;;;;;;;;;;;26.44;44.36;101468.47;5073242;28;20298;-80
2023/06/23 07:31:28;;;;;;;;;;;;;;;26.47;44.37;101473.28;5074822;28;20587;-80
2023/06/23 07:33:53;;;;;;;;;;;;;;;26.47;44.21;101476.03;5080404;28;19927;-80
2023/06/23 07:36:19;;;;;;;;;;;;;;;26.47;44.70;101473.28;5080674;28;19927;-80
2023/06/23 07:38:44;;;;;;;;;;;;;;;26.46;44.39;101471.66;5079681;28;19969;-80
2023/06/23 07:41:09;;;;;;;;;;;;;;;26.45;44.52;101475.56;5075327;28;20537;-79
2023/06/23 07:43:35;;;;;;;;;;;;;;;26.48;44.50;101472.13;5077529;28;19930;-80
2023/06/23 07:46:00;;;;;;;;;;;;;;;26.46;44.52;101466.97;5077543;28;20128;-79
2023/06/23 07:48:25;;;;;;;;;;;;;;;26.46;44.78;101466.97;5078564;28;19919;-80
2023/06/23 07:50:51;;;;;;;;;;;;;;;26.45;44.62;101475.56;5078590;28;19920;-80
2023/06/23 07:53:16;;;;;;;;;;;;;;;26.47;44.80;101492.50;5080052;28;20439;-79
2023/06/23 07:55:41;;;;;;;;;;;;;;;26.50;44.71;101491.84;5072607;28;20163;-80
2023/06/23 07:58:07;;;;;;;;;;;;;;;26.50;44.63;101491.84;5078977;28;19916;-81
2023/06/23 08:00:32;;;;;;;;;;;;;;;26.49;44.97;101491.03;5077788;28;20018;-80
2023/06/23 08:02:57;;;;;;;;;;;;;;;26.47;44.57;101498.81;5075418;28;19951;-80
2023/06/23 08:05:23;;;;;;;;;;;;;;;26.47;44.80;101500.75;5083634;28;19931;-80
2023/06/23 08:07:49;;;;;;;;;;;;;;;26.47;45.06;101511.75;5081412;28;19920;-80
2023/06/23 08:10:14;;;;;;;;;;;;;;;26.48;45.08;101507.84;5073248;28;20054;-80
2023/06/23 08:12:39;;;;;;;;;;;;;;;26.50;45.00;101511.06;5077956;28;20403;-80
2023/06/23 08:15:06;;;;;;;;;;;;;;;26.50;44.92;101522.06;5079996;28;20001;-81
2023/06/23 08:17:31;;;;;;;;;;;;;;;26.50;45.24;101522.06;5061676;28;19977;-80
2023/06/23 08:19:56;;;;;;;;;;;;;;;26.52;45.14;101519.78;5076351;28;19920;-81
2023/06/23 08:22:21;;;;;;;;;;;;;;;26.55;45.41;101532.84;5082385;28;20380;-80
2023/06/23 08:24:47;;;;;;;;;;;;;;;26.58;45.12;101545.13;5079706;28;20388;-80
2023/06/23 08:27:12;;;;;;;;;;;;;;;26.58;45.13;101540.44;5082481;28;19919;-80
2023/06/23 08:29:38;;;;;;;;;;;;;;;26.59;45.10;101542.03;5075571;28;19924;-80
2023/06/23 08:32:04;;;;;;;;;;;;;;;26.58;45.37;101548.69;5081560;28;19916;-80
2023/06/23 08:34:29;;;;;;;;;;;;;;;26.56;45.49;101544.63;5054606;28;19917;-80
2023/06/23 08:36:55;;;;;;;;;;;;;;;26.56;45.68;101542.69;5078599;28;19993;-80
2023/06/23 08:39:20;;;;;;;;;;;;;;;26.58;45.73;101545.94;5079831;28;19922;-80
2023/06/23 08:41:47;;;;;;;;;;;;;;;26.60;45.80;101545.59;5083259;28;19970;-81
2023/06/23 08:44:14;;;;;;;;;;;;;;;26.62;45.85;101549.59;5092153;28;19923;-81
2023/06/23 08:46:40;;;;;;;;;;;;;;;26.64;45.61;101547.31;5080106;28;19920;-81
2023/06/23 08:49:08;;;;;;;;;;;;;;;26.70;45.67;101550.66;5082758;28;20052;-81
2023/06/23 08:51:34;;;;;;;;;;;;;;;26.76;45.42;101552.88;5089058;28;19928;-80
2023/06/23 08:54:00;;;;;;;;;;;;;;;26.84;45.33;101562.16;5090486;28;19927;-81
2023/06/23 08:56:26;;;;;;;;;;;;;;;26.93;45.12;101562.06;5086953;28;19999;-80
2023/06/23 08:58:51;;;;;;;;;;;;;;;27.00;45.37;101567.84;5089160;28;20042;-81
2023/06/23 09:01:16;;;;;;;;;;;;;;;27.05;45.28;101564.88;5091154;28;20003;-80
2023/06/23 09:03:42;;;;;;;;;;;;;;;27.09;45.24;101565.81;5085264;28;19978;-80
2023/06/23 09:06:07;;;;;;;;;;;;;;;27.13;44.98;101577.75;5088299;28;20721;-80
2023/06/23 09:08:34;;;;;;;;;;;;;;;27.17;45.24;101578.69;5086950;28;20396;-80
2023/06/23 09:10:59;;;;;;;;;;;;;;;27.22;44.92;101583.16;5086924;28;20419;-80
2023/06/23 09:13:33;;;;;;;;;;;;;;;27.26;45.07;101593.13;5078681;28;19959;-80
2023/06/23 09:16:00;;;;;;;;;;;;;;;27.24;45.23;101602.88;5088122;28;19963;-81
2023/06/23 09:18:25;;;;;;;;;;;;;;;27.21;45.26;101601.59;5083228;28;20520;-80
2023/06/23 09:20:51;;;;;;;;;;;;;;;27.21;45.03;101604.34;5086516;28;19920;-80
2023/06/23 09:23:18;;;;;;;;;;;;;;;27.21;45.15;101612.59;5083443;28;19920;-81
2023/06/23 09:25:47;;;;;;;;;;;;;;;27.21;45.40;101615.34;5087722;28;20030;-80
2023/06/23 09:28:29;;;;;;;;;;;;;;;27.20;45.26;101611.00;5085708;28;19966;-80
2023/06/23 09:31:14;;;;;;;;;;;;;;;27.22;45.33;101607.91;5085175;28;20391;-80
2023/06/23 09:33:46;;;;;;;;;;;;;;;27.25;45.20;101616.28;5081219;28;19920;-80
2023/06/23 09:36:12;;;;;;;;;;;;;;;27.27;45.13;101614.00;5084959;28;19939;-81
2023/06/23 09:38:38;;;;;;;;;;;;;;;27.29;44.97;101617.22;5081798;28;20408;-80
2023/06/23 09:41:30;;;;;;;;;;;;;;;27.33;44.99;101617.34;5091176;28;20462;-80
2023/06/23 09:43:56;;;;;;;;;;;;;;;27.34;44.87;101617.00;5079477;28;19916;-80
2023/06/23 09:46:26;;;;;;;;;;;;;;;27.38;44.93;101617.94;5085460;28;20512;-80
2023/06/23 09:48:52;;;;;;;;;;;;;;;27.43;44.86;101618.84;5079451;28;20446;-80
2023/06/23 09:51:21;;;;;;;;;;;;;;;27.47;44.85;101620.59;5082456;28;19928;-80
2023/06/23 09:53:47;;;;;;;;;;;;;;;27.48;44.77;101613.13;5086305;28;19920;-81
2023/06/23 09:56:17;;;;;;;;;;;;;;;27.50;44.68;101613.59;5065285;28;19920;-80
2023/06/23 09:58:43;;;;;;;;;;;;;;;27.57;44.56;101602.81;5069130;28;20447;-80
2023/06/23 10:01:09;;;;;;;;;;;;;;;27.63;44.14;101596.75;5083602;28;20392;-81
2023/06/23 10:03:48;;;;;;;;;;;;;;;27.68;44.31;101598.50;5083320;28;19923;-81
2023/06/23 10:06:24;;;;;;;;;;;;;;;27.71;44.29;101603.31;5083941;28;20495;-80
2023/06/23 10:08:59;;;;;;;;;;;;;;;27.74;44.22;101601.81;5078894;28;19920;-81
2023/06/23 10:11:30;;;;;;;;;;;;;;;27.77;44.29;101590.13;5067353;28;19993;-80
2023/06/23 10:13:57;;;;;;;;;;;;;;;27.80;44.31;101589.44;5084047;28;19919;-80
2023/06/23 10:16:23;;;;;;;;;;;;;;;27.83;44.14;101592.31;5084243;28;19924;-80
2023/06/23 10:18:48;;;;;;;;;;;;;;;27.85;44.36;101594.72;5085825;28;19923;-81
2023/06/23 10:21:13;;;;;;;;;;;;;;;27.85;44.38;101592.78;5078866;28;19927;-81
2023/06/23 10:23:39;;;;;;;;;;;;;;;27.89;44.51;101595.63;5087418;28;20699;-80
2023/06/23 10:26:05;;;;;;;;;;;;;;;27.91;44.52;101602.41;5065984;28;20322;-81
2023/06/23 10:28:30;;;;;;;;;;;;;;;27.92;44.33;101601.25;5078677;28;19923;-80
2023/06/23 10:30:58;;;;;;;;;;;;;;;27.96;44.23;101595.84;5081293;28;19927;-80
2023/06/23 10:33:25;;;;;;;;;;;;;;;28.00;44.33;101596.75;5085348;28;19920;-80
2023/06/23 10:35:52;;;;;;;;;;;;;;;28.03;44.01;101595.28;5080972;28;20292;-80
2023/06/23 10:38:20;;;;;;;;;;;;;;;28.11;44.08;101594.34;5084016;28;20455;-80
2023/06/23 10:40:49;;;;;;;;;;;;;;;28.17;44.68;101598.47;5081274;28;19926;-81
2023/06/23 10:43:15;;;;;;;;;;;;;;;28.25;44.06;101592.03;5079854;28;20018;-81
2023/06/23 10:45:41;;;;;;;;;;;;;;;28.32;43.90;101599.72;5079859;28;19920;-81
2023/06/23 10:48:07;;;;;;;;;;;;;;;28.36;43.87;101606.16;5079280;28;19971;-81
2023/06/23 10:50:33;;;;;;;;;;;;;;;28.39;44.17;101613.75;5083601;28;20707;-81
2023/06/23 10:53:08;;;;;;;;;;;;;;;28.42;43.68;101621.31;5081916;28;19924;-80
2023/06/23 10:55:39;;;;;;;;;;;;;;;28.37;43.63;101625.13;5078679;28;19920;-81
2023/06/23 10:58:11;;;;;;;;;;;;;;;28.38;43.87;101625.91;5062573;28;19920;-80
2023/06/23 11:00:37;;;;;;;;;;;;;;;28.42;44.03;101619.34;5078210;28;19916;-81
2023/06/23 11:03:05;;;;;;;;;;;;;;;28.46;43.70;101622.22;5080692;28;19931;-81
2023/06/23 11:05:30;;;;;;;;;;;;;;;28.46;43.69;101627.72;5079901;28;19923;-80
2023/06/23 11:08:03;;;;;;;;;;;;;;;28.45;44.07;101632.44;5079977;28;19920;-81
2023/06/23 11:10:47;;;;;;;;;;;;;;;28.42;43.84;101630.38;5078530;28;20013;-81
2023/06/23 11:13:13;;;;;;;;;;;;;;;28.37;43.86;101640.81;5079646;28;19921;-79
2023/06/23 11:15:38;;;;;;;;;;;;;;;28.35;44.22;101643.94;5079357;28;19920;-81
2023/06/23 11:18:06;;;;;;;;;;;;;;;28.35;44.10;101643.94;5079201;28;19921;-80
2023/06/23 11:20:33;;;;;;;;;;;;;;;28.38;44.40;101650.72;5064382;28;19916;-80
2023/06/23 11:22:59;;;;;;;;;;;;;;;28.38;44.34;101647.97;5082394;28;19917;-80
2023/06/23 11:25:46;;;;;;;;;;;;;;;28.46;43.96;101636.00;5078358;28;19920;-81
2023/06/23 11:28:23;;;;;;;;;;;;;;;28.64;43.90;101639.28;5080320;28;20066;-81
2023/06/23 11:31:10;;;;;;;;;;;;;;;28.81;43.88;101650.03;5078495;28;19930;-80
2023/06/23 11:33:37;;;;;;;;;;;;;;;28.83;43.80;101651.28;5085113;28;20643;-80
2023/06/23 11:36:08;;;;;;;;;;;;;;;28.83;43.63;101647.72;5076470;28;19927;-80
2023/06/23 11:38:34;;;;;;;;;;;;;;;28.85;43.04;101646.22;5082328;28;20032;-80
2023/06/23 11:41:01;;;;;;;;;;;;;;;28.85;43.00;101646.22;5074504;28;19920;-80
2023/06/23 11:43:30;;;;;;;;;;;;;;;28.79;43.06;101644.06;5079275;28;19946;-81
2023/06/23 11:45:56;;;;;;;;;;;;;;;28.70;43.06;101646.13;5076481;28;19916;-81
2023/06/23 11:48:26;;;;;;;;;;;;;;;28.65;43.12;101657.44;5075846;28;19927;-81
2023/06/23 11:50:53;;;;;;;;;;;;;;;28.63;42.89;101654.22;5077618;28;19932;-81
2023/06/23 11:53:18;;;;;;;;;;;;;;;28.58;43.12;101653.31;5057214;28;19926;-80
2023/06/23 11:55:43;;;;;;;;;;;;;;;28.51;43.20;101655.84;5077951;28;19924;-80
2023/06/23 11:58:09;;;;;;;;;;;;;;;28.44;43.46;101658.41;5076417;28;19924;-81
2023/06/23 12:00:34;;;;;;;;;;;;;;;28.42;43.57;101655.19;5076473;28;20412;-81
2023/06/23 12:02:59;;;;;;;;;;;;;;;28.43;43.40;101673.31;5074197;28;19920;-81
2023/06/23 12:05:26;;;;;;;;;;;;;;;28.44;43.37;101677.69;5071338;28;20002;-81
2023/06/23 12:07:52;;;;;;;;;;;;;;;28.40;43.08;101679.53;5075046;28;19920;-81
2023/06/23 12:10:17;;;;;;;;;;;;;;;28.40;43.19;101675.97;5072221;28;19977;-81
2023/06/23 12:12:45;;;;;;;;;;;;;;;28.39;43.34;101666.09;5076921;28;20286;-82
2023/06/23 12:15:11;;;;;;;;;;;;;;;28.37;43.36;101669.22;5075620;28;20296;-81
2023/06/23 12:17:41;;;;;;;;;;;;;;;28.36;43.09;101667.56;5079431;28;19931;-81
2023/06/23 12:20:06;;;;;;;;;;;;;;;28.34;43.26;101674.59;5080090;28;19920;-81
2023/06/23 12:22:38;;;;;;;;;;;;;;;28.30;43.46;101668.97;5080436;28;19989;-82
2023/06/23 12:25:04;;;;;;;;;;;;;;;28.27;43.42;101680.69;5082411;28;19931;-82
2023/06/23 12:27:30;;;;;;;;;;;;;;;28.26;43.49;101687.34;5083732;28;19920;-82
2023/06/23 12:29:55;;;;;;;;;;;;;;;28.24;43.70;101698.69;5078155;28;20391;-82
2023/06/23 12:32:27;;;;;;;;;;;;;;;28.25;43.87;101693.97;5079232;28;20450;-81
2023/06/23 12:34:54;;;;;;;;;;;;;;;28.26;43.93;101701.94;5077206;28;19920;-81
2023/06/23 12:37:20;;;;;;;;;;;;;;;28.31;43.56;101702.84;5077742;28;19920;-81